Time;durP1;ratioP1;P1;durP2;ratioP2;P2;SDS_P1;SDS_P2;PMS_P1;PMS_P2;Temp;Humidity;BMP_temperature;BMP_pressure;BME280_temperature;BME280_humidity;BME280_pressure;Samples;Min_cycle;Max_cycle;Signal;HPM_P1;HPM_P2
2023/03/29 00:01:57;;;;;;;7.50;3.38;;;;;;;4.44;100.00;101687.63;5031974;28;20053;-78
2023/03/29 00:04:26;;;;;;;8.40;2.95;;;;;;;4.47;100.00;101686.63;5047012;28;20036;-77
2023/03/29 00:06:52;;;;;;;5.80;3.58;;;;;;;4.50;100.00;101678.56;5014897;28;20053;-78
2023/03/29 00:09:18;;;;;;;6.82;3.05;;;;;;;4.51;100.00;101673.22;5014138;28;20395;-78
2023/03/29 00:11:44;;;;;;;5.63;3.40;;;;;;;4.55;100.00;101673.91;5014195;28;20112;-82
2023/03/29 00:14:10;;;;;;;6.90;3.90;;;;;;;4.60;100.00;101666.63;5034650;28;20053;-79
2023/03/29 00:16:36;;;;;;;7.53;3.08;;;;;;;4.63;100.00;101655.03;5035583;28;20120;-78
2023/03/29 00:19:02;;;;;;;4.82;3.08;;;;;;;4.67;100.00;101653.94;5036048;28;20437;-78
2023/03/29 00:21:28;;;;;;;9.13;3.67;;;;;;;4.70;100.00;101659.94;5018073;28;20120;-79
2023/03/29 00:23:55;;;;;;;5.00;3.13;;;;;;;4.76;100.00;101656.09;5035515;28;20108;-77
2023/03/29 00:26:20;;;;;;;7.60;3.60;;;;;;;4.80;100.00;101651.53;5035947;28;20045;-78
2023/03/29 00:28:46;;;;;;;7.15;3.55;;;;;;;4.84;100.00;101655.72;5018187;28;20040;-79
2023/03/29 00:31:14;;;;;;;5.63;3.30;;;;;;;4.93;100.00;101647.31;5035930;28;20044;-78
2023/03/29 00:33:41;;;;;;;9.00;3.35;;;;;;;4.99;100.00;101638.22;5035629;28;20040;-78
2023/03/29 00:36:07;;;;;;;5.35;3.40;;;;;;;5.02;100.00;101630.13;5017830;28;20570;-78
2023/03/29 00:38:33;;;;;;;6.72;3.30;;;;;;;5.06;100.00;101634.28;5035590;28;20035;-78
2023/03/29 00:40:59;;;;;;;6.88;3.38;;;;;;;5.11;100.00;101637.53;5035484;28;20033;-77
2023/03/29 00:43:25;;;;;;;7.00;3.22;;;;;;;5.12;100.00;101629.53;5017443;28;20041;-79
2023/03/29 00:45:51;;;;;;;7.25;3.25;;;;;;;5.16;100.00;101634.63;5035421;28;20120;-78
2023/03/29 00:48:23;;;;;;;5.45;3.10;;;;;;;5.17;100.00;101624.00;5035180;28;20037;-79
2023/03/29 00:50:54;;;;;;;5.78;3.53;;;;;;;5.19;100.00;101627.41;5001604;28;20517;-79
2023/03/29 00:53:25;;;;;;;;;;;;;;;5.22;100.00;101619.31;5036239;28;20358;-77
2023/03/29 00:56:10;;;;;;;6.95;3.83;;;;;;;5.28;100.00;101631.31;5035309;28;19920;-82
2023/03/29 00:58:46;;;;;;;4.70;3.85;;;;;;;5.30;100.00;101625.03;5035225;28;20444;-78
2023/03/29 01:01:18;;;;;;;7.13;3.55;;;;;;;5.33;100.00;101624.00;5035764;28;20034;-78
2023/03/29 01:03:58;;;;;;;8.90;3.63;;;;;;;5.37;100.00;101617.59;5017635;28;20044;-76
2023/03/29 01:06:28;;;;;;;7.57;4.00;;;;;;;5.38;100.00;101615.84;5035548;28;20029;-77
2023/03/29 01:08:59;;;;;;;6.63;3.70;;;;;;;5.37;100.00;101616.75;5034858;28;20112;-77
2023/03/29 01:11:33;;;;;;;6.75;3.92;;;;;;;5.36;100.00;101615.91;5034914;28;20137;-78
2023/03/29 01:14:11;;;;;;;7.25;4.00;;;;;;;5.38;100.00;101606.13;5035127;28;20034;-77
2023/03/29 01:16:37;;;;;;;5.10;4.05;;;;;;;5.40;100.00;101606.03;5034963;28;20026;-78
2023/03/29 01:19:06;;;;;;;11.13;3.97;;;;;;;5.41;100.00;101600.66;5017449;28;20444;-79
2023/03/29 01:21:41;;;;;;;5.40;3.88;;;;;;;5.45;100.00;101590.81;5016815;28;20053;-78
2023/03/29 01:24:14;;;;;;;9.85;3.95;;;;;;;5.45;100.00;101589.00;5034583;28;20033;-77
2023/03/29 01:27:11;;;;;;;7.60;4.20;;;;;;;5.44;100.00;101584.66;5034190;28;20034;-77
2023/03/29 01:29:59;;;;;;;7.47;4.40;;;;;;;5.44;100.00;101584.66;5050281;28;20033;-77
2023/03/29 01:32:36;;;;;;;7.70;4.13;;;;;;;5.46;100.00;101587.19;5034571;28;20040;-77
2023/03/29 01:35:39;;;;;;;8.80;4.45;;;;;;;5.45;100.00;101590.81;5034640;28;20100;-77
2023/03/29 01:38:20;;;;;;;7.93;4.28;;;;;;;5.44;100.00;101579.38;5034079;28;20036;-78
2023/03/29 01:40:46;;;;;;;9.48;4.43;;;;;;;5.48;100.00;101575.63;5034125;28;20061;-77
2023/03/29 01:43:30;;;;;;;5.50;3.95;;;;;;;5.50;100.00;101579.97;5049610;28;20488;-76
2023/03/29 01:46:04;;;;;;;7.82;4.20;;;;;;;5.49;100.00;101581.75;5034232;28;20170;-77
2023/03/29 01:48:46;;;;;;;8.07;4.50;;;;;;;5.47;100.00;101576.56;5034823;28;20476;-78
2023/03/29 01:51:37;;;;;;;8.50;4.30;;;;;;;5.49;100.00;101573.81;5034192;28;20026;-77
2023/03/29 01:54:19;;;;;;;8.50;4.00;;;;;;;5.49;100.00;101576.47;5034386;28;20052;-77
2023/03/29 01:56:47;;;;;;;7.72;4.50;;;;;;;5.50;100.00;101572.91;5034479;28;20025;-78
2023/03/29 01:59:17;;;;;;;8.65;4.53;;;;;;;5.50;100.00;101570.25;5016823;28;20378;-78
2023/03/29 02:01:48;;;;;;;8.35;4.28;;;;;;;5.51;100.00;101576.38;5033929;28;20061;-77
2023/03/29 02:04:28;;;;;;;6.57;4.10;;;;;;;5.53;100.00;101567.44;5016009;28;20117;-77
2023/03/29 02:06:56;;;;;;;11.65;4.47;;;;;;;5.54;100.00;101571.78;5034277;28;20026;-77
2023/03/29 02:09:22;;;;;;;12.43;4.82;;;;;;;5.55;100.00;101569.97;5033585;28;20034;-77
2023/03/29 02:11:50;;;;;;;8.80;4.30;;;;;;;5.56;100.00;101566.41;5034130;28;20436;-77
2023/03/29 02:14:15;;;;;;;7.10;4.53;;;;;;;5.59;100.00;101560.97;5033805;28;20033;-77
2023/03/29 02:16:41;;;;;;;9.20;4.55;;;;;;;5.58;100.00;101560.13;5015708;28;20045;-76
2023/03/29 02:19:08;;;;;;;9.82;4.18;;;;;;;5.57;100.00;101546.97;5015667;28;20038;-77
2023/03/29 02:22:00;;;;;;;9.68;4.25;;;;;;;5.56;100.00;101540.03;5015962;28;20037;-77
2023/03/29 02:24:31;;;;;;;8.57;4.47;;;;;;;5.58;100.00;101543.41;5049575;28;20392;-76
2023/03/29 02:26:57;;;;;;;13.30;4.55;;;;;;;5.60;100.00;101545.03;5033905;28;20026;-77
2023/03/29 02:29:22;;;;;;;7.50;3.67;;;;;;;5.60;100.00;101546.81;5033226;28;20437;-77
2023/03/29 02:32:03;;;;;;;8.13;4.40;;;;;;;5.62;100.00;101542.28;5032828;28;20038;-77
2023/03/29 02:34:37;;;;;;;9.77;4.35;;;;;;;5.62;100.00;101532.56;5033744;28;20045;-77
2023/03/29 02:37:09;;;;;;;12.75;4.53;;;;;;;5.64;100.00;101532.47;5032926;28;20042;-78
2023/03/29 02:39:35;;;;;;;9.05;4.30;;;;;;;5.63;100.00;101536.94;5048834;28;20029;-78
2023/03/29 02:42:02;;;;;;;11.55;4.35;;;;;;;5.67;100.00;101520.91;5015195;28;20033;-78
2023/03/29 02:44:30;;;;;;;7.20;4.43;;;;;;;5.65;100.00;101524.47;5032800;28;20382;-76
2023/03/29 02:47:00;;;;;;;8.77;4.45;;;;;;;5.65;100.00;101519.19;5015713;28;20042;-77
2023/03/29 02:49:26;;;;;;;8.57;4.47;;;;;;;5.65;100.00;101513.06;5033315;28;20025;-78
2023/03/29 02:51:56;;;;;;;9.75;4.30;;;;;;;5.62;100.00;101511.44;5014901;28;20060;-79
2023/03/29 02:54:25;;;;;;;7.53;4.28;;;;;;;5.62;100.00;101515.91;5032327;28;20469;-78
2023/03/29 02:56:59;;;;;;;10.43;4.38;;;;;;;5.61;100.00;101512.41;5032710;28;20124;-76
2023/03/29 02:59:24;;;;;;;6.10;4.25;;;;;;;5.63;100.00;101507.03;5032262;28;20091;-77
2023/03/29 03:01:51;;;;;;;8.85;4.13;;;;;;;5.64;100.00;101506.09;5032459;28;20393;-77
2023/03/29 03:04:19;;;;;;;8.18;4.13;;;;;;;5.65;100.00;101506.00;5032394;28;20033;-76
2023/03/29 03:06:45;;;;;;;10.80;5.13;;;;;;;5.65;100.00;101505.16;5032378;28;20046;-77
2023/03/29 03:09:10;;;;;;;8.07;4.63;;;;;;;5.67;100.00;101511.19;5032091;28;20069;-79
2023/03/29 03:11:35;;;;;;;6.68;4.40;;;;;;;5.65;100.00;101494.59;5014605;28;20068;-78
2023/03/29 03:14:01;;;;;;;7.90;4.53;;;;;;;5.63;100.00;101497.31;5032639;28;20068;-77
2023/03/29 03:16:26;;;;;;;8.88;4.93;;;;;;;5.68;100.00;101501.47;5032201;28;20087;-77
2023/03/29 03:18:54;;;;;;;10.00;4.35;;;;;;;5.70;100.00;101500.44;5032349;28;20454;-77
2023/03/29 03:21:20;;;;;;;10.45;4.45;;;;;;;5.70;100.00;101497.78;5014641;28;20428;-78
2023/03/29 03:23:47;;;;;;;11.23;4.47;;;;;;;5.72;100.00;101495.06;5014261;28;20123;-78
2023/03/29 03:26:14;;;;;;;9.55;4.93;;;;;;;5.73;100.00;101489.72;5014005;28;20025;-78
2023/03/29 03:28:39;;;;;;;7.20;4.40;;;;;;;5.74;100.00;101488.75;5032296;28;20125;-77
2023/03/29 03:31:05;;;;;;;9.48;5.05;;;;;;;5.76;100.00;101496.59;5047449;28;20128;-78
2023/03/29 03:33:30;;;;;;;10.05;4.20;;;;;;;5.76;100.00;101494.81;5014212;28;20042;-77
2023/03/29 03:36:01;;;;;;;8.60;4.75;;;;;;;5.77;100.00;101496.50;5032324;28;20484;-77
2023/03/29 03:38:29;;;;;;;9.25;4.70;;;;;;;5.76;100.00;101491.31;5013860;28;20477;-78
2023/03/29 03:40:56;;;;;;;8.43;5.00;;;;;;;5.77;100.00;101498.28;5032077;28;20059;-77
2023/03/29 03:43:22;;;;;;;12.60;5.13;;;;;;;5.76;100.00;101486.88;5031885;28;20063;-77
2023/03/29 03:45:48;;;;;;;13.13;4.80;;;;;;;5.79;100.00;101488.47;5013868;28;20136;-77
2023/03/29 03:48:14;;;;;;;8.93;4.85;;;;;;;5.81;100.00;101490.09;5013313;28;20029;-77
2023/03/29 03:50:39;;;;;;;7.68;4.63;;;;;;;5.85;100.00;101484.63;5013699;28;20112;-77
2023/03/29 03:53:05;;;;;;;11.30;4.95;;;;;;;5.88;100.00;101495.88;5031842;28;20164;-78
2023/03/29 03:55:31;;;;;;;6.55;4.97;;;;;;;5.90;100.00;101490.50;5031918;28;20029;-77
2023/03/29 03:57:57;;;;;;;8.43;5.00;;;;;;;5.86;100.00;101481.88;5031525;28;20064;-77
2023/03/29 04:00:23;;;;;;;7.25;4.88;;;;;;;5.86;100.00;101483.69;5031694;28;20101;-77
2023/03/29 04:02:48;;;;;;;11.10;5.22;;;;;;;5.86;100.00;101484.53;5031912;28;20479;-77
2023/03/29 04:05:15;;;;;;;13.15;4.75;;;;;;;5.84;100.00;101478.50;5014092;28;20124;-77
2023/03/29 04:07:41;;;;;;;8.02;5.00;;;;;;;5.84;100.00;101475.84;5013779;28;20066;-77
2023/03/29 04:10:08;;;;;;;7.75;4.45;;;;;;;5.85;100.00;101476.69;5013860;28;20028;-76
2023/03/29 04:12:34;;;;;;;8.68;5.07;;;;;;;5.83;100.00;101469.72;5031730;28;20029;-77
2023/03/29 04:15:01;;;;;;;8.20;4.82;;;;;;;5.81;100.00;101466.31;5013963;28;20072;-78
2023/03/29 04:17:26;;;;;;;8.60;5.38;;;;;;;5.81;100.00;101465.47;5013373;28;20036;-79
2023/03/29 04:19:51;;;;;;;9.90;5.47;;;;;;;5.83;100.00;101468.88;5031360;28;20031;-79
2023/03/29 04:22:17;;;;;;;11.07;5.60;;;;;;;5.83;100.00;101466.22;5013998;28;20064;-78
2023/03/29 04:24:43;;;;;;;16.10;5.50;;;;;;;5.84;100.00;101467.94;5031151;28;20385;-78
2023/03/29 04:27:08;;;;;;;10.30;5.32;;;;;;;5.83;100.00;101463.59;5030082;28;20094;-78
2023/03/29 04:29:33;;;;;;;8.05;5.20;;;;;;;5.83;100.00;101453.88;5031551;28;20029;-78
2023/03/29 04:31:59;;;;;;;11.07;5.03;;;;;;;5.83;100.00;101456.50;5013832;28;20040;-78
2023/03/29 04:34:24;;;;;;;8.20;4.53;;;;;;;5.84;100.00;101454.72;5031335;28;20040;-78
2023/03/29 04:36:49;;;;;;;7.25;4.85;;;;;;;5.87;100.00;101445.75;5031495;28;20493;-78
2023/03/29 04:39:16;;;;;;;9.93;5.43;;;;;;;5.87;100.00;101448.38;5031519;28;20477;-78
2023/03/29 04:41:43;;;;;;;8.77;5.28;;;;;;;5.88;100.00;101452.75;5031737;28;20192;-77
2023/03/29 04:44:08;;;;;;;10.50;5.45;;;;;;;5.89;100.00;101449.16;5031556;28;20048;-78
2023/03/29 04:46:34;;;;;;;8.38;5.10;;;;;;;5.89;100.00;101450.00;5031767;28;20501;-77
2023/03/29 04:48:59;;;;;;;8.52;5.45;;;;;;;5.88;100.00;101450.97;5046686;28;20037;-77
2023/03/29 04:51:25;;;;;;;9.38;5.40;;;;;;;5.93;100.00;101450.69;5031418;28;20159;-79
2023/03/29 04:53:50;;;;;;;8.07;5.05;;;;;;;5.93;100.00;101445.41;5031450;28;20366;-76
2023/03/29 04:56:16;;;;;;;10.55;5.53;;;;;;;5.94;100.00;101447.06;5031272;28;20029;-77
2023/03/29 04:58:43;;;;;;;7.15;5.20;;;;;;;5.94;100.00;101447.94;5013461;28;20136;-77
2023/03/29 05:01:08;;;;;;;10.55;6.03;;;;;;;5.94;100.00;101447.94;5034864;28;20099;-79
2023/03/29 05:03:34;;;;;;;11.57;5.72;;;;;;;5.96;100.00;101446.03;5036107;28;20351;-78
2023/03/29 05:06:08;;;;;;;10.35;4.95;;;;;;;5.97;100.00;101455.72;5035958;28;20393;-76
2023/03/29 05:08:37;;;;;;;12.00;4.90;;;;;;;5.99;100.00;101460.91;5017557;28;20034;-77
2023/03/29 05:11:02;;;;;;;8.77;4.60;;;;;;;6.00;100.00;101467.88;5035797;28;20536;-77
2023/03/29 05:13:28;;;;;;;14.45;5.28;;;;;;;6.00;100.00;101467.88;5017538;28;20033;-77
2023/03/29 05:15:53;;;;;;;9.40;5.13;;;;;;;6.00;100.00;101471.38;5035550;28;20045;-80
2023/03/29 05:18:18;;;;;;;11.25;5.22;;;;;;;6.03;100.00;101469.47;5035730;28;20148;-79
2023/03/29 05:20:44;;;;;;;10.30;5.60;;;;;;;6.05;100.00;101475.53;5050519;28;20034;-76
2023/03/29 05:23:11;;;;;;;12.90;5.72;;;;;;;6.07;100.00;101471.00;5035337;28;20043;-79
2023/03/29 05:25:36;;;;;;;12.50;5.28;;;;;;;6.07;100.00;101455.97;5034925;28;20068;-77
2023/03/29 05:28:02;;;;;;;7.88;5.30;;;;;;;6.11;100.00;101464.59;5035234;28;20057;-77
2023/03/29 05:30:27;;;;;;;6.95;4.88;;;;;;;6.12;100.00;101458.34;5017094;28;20095;-80
2023/03/29 05:32:53;;;;;;;9.60;5.38;;;;;;;6.13;100.00;101460.88;5035064;28;20038;-77
2023/03/29 05:35:18;;;;;;;8.95;5.45;;;;;;;6.11;100.00;101457.50;5035093;28;20059;-78
2023/03/29 05:37:46;;;;;;;10.13;5.32;;;;;;;6.11;100.00;101470.72;5016964;28;20068;-77
2023/03/29 05:40:12;;;;;;;13.25;5.38;;;;;;;6.17;100.00;101469.47;5017934;28;20030;-81
2023/03/29 05:42:37;;;;;;;7.78;4.95;;;;;;;6.22;100.00;101471.84;5035016;28;20045;-75
2023/03/29 05:45:05;;;;;;;14.80;5.40;;;;;;;6.25;100.00;101474.28;5034729;28;20144;-75
2023/03/29 05:47:31;;;;;;;11.80;5.32;;;;;;;6.24;100.00;101465.53;5034979;28;20082;-76
2023/03/29 05:49:56;;;;;;;11.82;6.93;;;;;;;6.25;100.00;101469.00;5034885;28;20124;-75
2023/03/29 05:52:22;;;;;;;10.23;5.65;;;;;;;6.25;100.00;101469.84;5034574;28;20116;-75
2023/03/29 05:54:48;;;;;;;12.07;5.88;;;;;;;6.26;100.00;101463.63;5035593;28;20060;-75
2023/03/29 05:57:13;;;;;;;9.38;5.60;;;;;;;6.29;100.00;101463.44;5016822;28;20041;-76
2023/03/29 05:59:38;;;;;;;8.68;5.97;;;;;;;6.34;100.00;101463.13;5050538;28;20385;-73
2023/03/29 06:02:04;;;;;;;8.77;5.40;;;;;;;6.40;100.00;101467.19;5016676;28;20061;-72
2023/03/29 06:04:32;;;;;;;10.85;5.53;;;;;;;6.46;100.00;101477.38;5016852;28;20044;-73
2023/03/29 06:06:59;;;;;;;13.95;6.40;;;;;;;6.48;100.00;101473.69;5034160;28;20044;-74
2023/03/29 06:09:24;;;;;;;11.60;6.00;;;;;;;6.49;100.00;101471.91;5034818;28;20033;-74
2023/03/29 06:11:49;;;;;;;15.90;5.93;;;;;;;6.52;100.00;101475.22;5033627;28;20056;-78
2023/03/29 06:14:15;;;;;;;7.57;5.47;;;;;;;6.53;100.00;101468.13;5017091;28;20036;-75
2023/03/29 06:16:42;;;;;;;10.18;5.60;;;;;;;6.57;100.00;101463.47;5034357;28;20029;-76
2023/03/29 06:19:07;;;;;;;15.57;5.35;;;;;;;6.61;100.00;101468.47;5034278;28;20033;-74
2023/03/29 06:21:32;;;;;;;11.75;5.38;;;;;;;6.68;100.00;101472.41;5034447;28;20052;-75
2023/03/29 06:23:58;;;;;;;14.30;6.25;;;;;;;6.77;100.00;101467.50;5033564;28;20094;-74
2023/03/29 06:26:26;;;;;;;18.38;6.50;;;;;;;6.84;100.00;101466.16;5049191;28;20478;-75
2023/03/29 06:28:51;;;;;;;10.93;5.68;;;;;;;6.92;100.00;101478.88;5033667;28;20064;-73
2023/03/29 06:31:18;;;;;;;10.93;5.97;;;;;;;7.00;100.00;101480.09;5034017;28;20064;-73
2023/03/29 06:33:44;;;;;;;12.27;5.75;;;;;;;7.07;100.00;101478.72;5033535;28;20048;-75
2023/03/29 06:36:10;;;;;;;11.70;6.00;;;;;;;7.12;100.00;101473.16;5033818;28;20033;-75
2023/03/29 06:38:36;;;;;;;12.02;6.15;;;;;;;7.16;100.00;101468.47;5033360;28;20034;-75
2023/03/29 06:41:06;;;;;;;15.27;5.97;;;;;;;7.21;100.00;101476.94;5033253;28;20029;-75
2023/03/29 06:43:32;;;;;;;14.48;6.40;;;;;;;7.28;100.00;101480.91;5033548;28;20061;-76
2023/03/29 06:45:57;;;;;;;11.13;5.80;;;;;;;7.36;100.00;101488.31;5033938;28;20123;-77
2023/03/29 06:48:23;;;;;;;13.15;6.32;;;;;;;7.43;100.00;101488.78;5033517;28;20040;-76
2023/03/29 06:50:49;;;;;;;10.02;6.35;;;;;;;7.51;100.00;101487.31;5033312;28;20405;-77
2023/03/29 06:53:14;;;;;;;11.85;6.10;;;;;;;7.56;100.00;101487.84;5033065;28;20041;-75
2023/03/29 06:55:40;;;;;;;12.52;6.85;;;;;;;7.59;100.00;101490.28;5033828;28;20048;-74
2023/03/29 06:58:07;;;;;;;11.43;6.63;;;;;;;7.61;100.00;101491.97;5033127;28;20041;-76
2023/03/29 07:00:34;;;;;;;13.95;6.70;;;;;;;7.63;100.00;101487.41;5033035;28;20029;-75
2023/03/29 07:03:05;;;;;;;12.50;7.05;;;;;;;7.66;100.00;101488.06;5015256;28;20034;-75
2023/03/29 07:05:31;;;;;;;14.18;7.10;;;;;;;7.74;100.00;101498.97;5038558;28;20032;-76
2023/03/29 07:08:09;;;;;;;16.75;6.80;;;;;;;7.89;100.00;101501.56;5032956;28;20083;-75
2023/03/29 07:10:38;;;;;;;13.57;6.50;;;;;;;7.97;100.00;101499.19;5033002;28;20126;-75
2023/03/29 07:13:08;;;;;;;13.52;6.93;;;;;;;8.03;100.00;101498.81;5032880;28;20029;-75
2023/03/29 07:15:34;;;;;;;13.25;6.72;;;;;;;8.06;100.00;101488.00;5032912;28;20112;-75
2023/03/29 07:18:03;;;;;;;16.67;7.60;;;;;;;8.09;100.00;101490.41;5032852;28;20085;-77
2023/03/29 07:20:30;;;;;;;14.98;6.70;;;;;;;8.17;100.00;101484.59;5033170;28;20044;-78
2023/03/29 07:22:56;;;;;;;15.95;6.90;;;;;;;8.19;100.00;101493.25;5031904;28;20037;-78
2023/03/29 07:25:23;;;;;;;15.75;7.35;;;;;;;8.22;100.00;101501.00;5032844;28;20047;-78
2023/03/29 07:27:48;;;;;;;16.15;7.13;;;;;;;8.28;100.00;101491.78;5014821;28;20083;-79
2023/03/29 07:30:17;;;;;;;18.95;7.18;;;;;;;8.36;100.00;101507.13;5033320;28;20033;-78
2023/03/29 07:32:45;;;;;;;15.48;7.60;;;;;;;8.42;100.00;101506.69;5032299;28;20099;-76
2023/03/29 07:35:12;;;;;;;16.13;8.02;;;;;;;8.44;100.00;101504.84;5032451;28;20034;-76
2023/03/29 07:37:38;;;;;;;15.27;7.82;;;;;;;8.47;100.00;101500.16;5032580;28;20052;-76
2023/03/29 07:40:15;;;;;;;18.58;8.65;;;;;;;8.54;100.00;101494.41;5032723;28;20462;-76
2023/03/29 07:42:44;;;;;;;17.25;7.75;;;;;;;8.63;100.00;101486.66;5032991;28;20033;-76
2023/03/29 07:45:12;;;;;;;18.25;8.18;;;;;;;8.72;100.00;101493.09;5032568;28;20041;-74
2023/03/29 07:47:39;;;;;;;17.02;8.30;;;;;;;8.87;100.00;101499.09;5048336;28;20034;-77
2023/03/29 07:50:06;;;;;;;21.83;9.40;;;;;;;8.97;100.00;101502.78;5015072;28;20045;-78
2023/03/29 07:52:32;;;;;;;20.00;9.05;;;;;;;8.99;100.00;101503.50;5032564;28;20497;-75
2023/03/29 07:54:57;;;;;;;23.63;9.63;;;;;;;9.02;100.00;101507.75;5032413;28;20151;-76
2023/03/29 07:57:24;;;;;;;14.27;9.05;;;;;;;9.06;100.00;101492.41;5032965;28;20049;-76
2023/03/29 07:59:49;;;;;;;18.98;8.85;;;;;;;9.14;100.00;101498.03;5033424;28;20052;-77
2023/03/29 08:02:15;;;;;;;18.88;9.77;;;;;;;9.25;100.00;101499.88;5033226;28;20033;-76
2023/03/29 08:04:40;;;;;;;19.80;8.60;;;;;;;9.40;100.00;101500.53;5033298;28;20307;-76
2023/03/29 08:07:06;;;;;;;21.77;8.93;;;;;;;9.53;100.00;101496.84;5015018;28;20535;-75
2023/03/29 08:09:32;;;;;;;13.73;8.52;;;;;;;9.62;100.00;101486.50;5032766;28;20531;-79
2023/03/29 08:11:57;;;;;;;15.10;8.95;;;;;;;9.73;100.00;101490.97;5015776;28;20041;-74
2023/03/29 08:14:23;;;;;;;18.25;9.40;;;;;;;9.86;100.00;101484.59;5032900;28;20074;-74
2023/03/29 08:16:50;;;;;;;19.85;8.90;;;;;;;9.84;100.00;101483.88;5033303;28;20080;-74
2023/03/29 08:19:15;;;;;;;21.08;8.68;;;;;;;9.84;100.00;101483.03;5035293;28;20474;-76
2023/03/29 08:21:41;;;;;;;14.85;9.38;;;;;;;9.99;100.00;101487.16;5035415;28;20029;-76
2023/03/29 08:24:06;;;;;;;18.45;9.48;;;;;;;10.15;100.00;101489.47;5049114;28;20040;-77
2023/03/29 08:26:32;;;;;;;17.25;8.68;;;;;;;10.31;100.00;101491.75;5033009;28;20052;-81
2023/03/29 08:28:58;;;;;;;21.60;9.85;;;;;;;10.39;100.00;101488.53;5032785;28;20060;-77
2023/03/29 08:31:23;;;;;;;20.20;9.55;;;;;;;10.50;100.00;101475.19;5032723;28;20076;-78
2023/03/29 08:33:49;;;;;;;17.73;9.30;;;;;;;10.77;100.00;101481.94;5033407;28;20496;-76
2023/03/29 08:36:14;;;;;;;22.73;9.90;;;;;;;11.13;100.00;101481.72;5036313;28;20458;-75
2023/03/29 08:38:40;;;;;;;20.60;9.93;;;;;;;11.27;100.00;101476.91;5036905;28;20029;-75
2023/03/29 08:41:30;;;;;;;17.25;8.85;;;;;;;11.40;100.00;101486.53;5036276;28;20041;-76
2023/03/29 08:44:19;;;;;;;23.88;9.98;;;;;;;11.37;100.00;101494.78;5036446;28;20033;-76
2023/03/29 08:46:50;;;;;;;23.63;9.73;;;;;;;11.34;100.00;101495.06;5036708;28;20033;-74
2023/03/29 08:49:18;;;;;;;17.10;9.80;;;;;;;11.25;100.00;101502.00;5036176;28;20040;-76
2023/03/29 08:51:48;;;;;;;22.50;9.77;;;;;;;11.08;100.00;101484.75;5036535;28;20083;-76
2023/03/29 08:54:39;;;;;;;21.13;10.63;;;;;;;10.91;100.00;101486.97;5036250;28;20044;-76
2023/03/29 08:57:16;;;;;;;23.40;11.48;;;;;;;10.84;100.00;101480.47;5036053;28;20040;-74
2023/03/29 08:59:50;;;;;;;26.75;10.95;;;;;;;10.86;100.00;101486.50;5051689;28;20080;-74
2023/03/29 09:02:22;;;;;;;23.10;11.63;;;;;;;10.90;100.00;101482.63;5036097;28;20079;-75
2023/03/29 09:04:49;;;;;;;22.05;10.55;;;;;;;11.06;100.00;101484.00;5036539;28;20029;-75
2023/03/29 09:07:15;;;;;;;24.67;10.73;;;;;;;10.91;100.00;101491.44;5036229;28;20037;-75
2023/03/29 09:09:41;;;;;;;21.58;10.90;;;;;;;10.85;100.00;101484.81;5035678;28;20037;-76
2023/03/29 09:12:23;;;;;;;18.42;10.35;;;;;;;11.03;100.00;101482.47;5035537;28;20044;-76
2023/03/29 09:14:59;;;;;;;21.75;10.35;;;;;;;11.33;100.00;101475.56;5035787;28;20087;-77
2023/03/29 09:17:39;;;;;;;19.45;9.75;;;;;;;11.73;100.00;101484.66;5036240;28;20033;-78
2023/03/29 09:20:22;;;;;;;23.90;10.60;;;;;;;11.68;100.00;101479.72;5035497;28;20112;-79
2023/03/29 09:23:03;;;;;;;18.25;9.48;;;;;;;11.60;100.00;101493.72;5035692;28;20069;-76
2023/03/29 09:26:18;;;;;;;19.33;9.63;;;;;;;11.60;100.00;101490.22;5035844;28;20044;-75
2023/03/29 09:28:53;;;;;;;21.08;9.35;;;;;;;11.70;100.00;101487.59;4997852;28;20045;-76
2023/03/29 09:31:28;;;;;;;18.02;9.35;;;;;;;11.84;100.00;101492.59;5035412;28;20025;-74
2023/03/29 09:34:01;;;;;;;20.35;9.18;;;;;;;11.95;100.00;101487.22;5035857;28;20128;-75
2023/03/29 09:36:35;;;;;;;23.63;9.40;;;;;;;11.77;100.00;101491.44;5035726;28;20113;-76
2023/03/29 09:39:02;;;;;;;18.35;9.00;;;;;;;11.67;100.00;101501.19;5001024;28;20041;-76
2023/03/29 09:41:49;;;;;;;13.68;8.80;;;;;;;11.49;100.00;101498.25;5035070;28;20033;-76
2023/03/29 09:44:30;;;;;;;15.77;8.85;;;;;;;11.34;100.00;101492.38;5034642;28;20036;-75
2023/03/29 09:47:28;;;;;;;14.25;8.98;;;;;;;11.32;100.00;101505.84;5034249;28;20108;-77
2023/03/29 09:50:01;;;;;;;12.93;8.20;;;;;;;11.38;100.00;101493.84;5035541;28;20163;-75
2023/03/29 09:52:27;;;;;;;16.65;9.25;;;;;;;11.39;100.00;101496.38;5035655;28;20033;-78
2023/03/29 09:54:52;;;;;;;15.35;8.32;;;;;;;11.40;100.00;101487.38;5035014;28;20110;-76
2023/03/29 09:57:18;;;;;;;13.57;8.38;;;;;;;11.28;100.00;101491.91;5035406;28;20095;-86
2023/03/29 09:59:50;;;;;;;16.83;8.50;;;;;;;11.46;100.00;101483.34;5017498;28;20076;-79
2023/03/29 10:02:18;;;;;;;13.63;8.30;;;;;;;11.54;100.00;101480.03;5036116;28;20445;-76
2023/03/29 10:04:44;;;;;;;12.73;8.02;;;;;;;11.56;100.00;101484.28;5035868;28;20044;-77
2023/03/29 10:07:19;;;;;;;16.27;8.32;;;;;;;11.56;100.00;101486.09;5034350;28;20033;-77
2023/03/29 10:09:45;;;;;;;15.88;8.48;;;;;;;11.62;100.00;101478.41;5035236;28;20371;-77
2023/03/29 10:12:12;;;;;;;11.15;7.95;;;;;;;11.63;100.00;101480.13;5035721;28;20143;-79
2023/03/29 10:14:45;;;;;;;13.38;7.63;;;;;;;11.69;100.00;101477.91;5035379;28;20034;-84
2023/03/29 10:17:21;;;;;;;13.70;7.78;;;;;;;11.58;100.00;101476.16;5035115;28;20039;-77
2023/03/29 10:19:57;;;;;;;12.27;7.47;;;;;;;11.68;100.00;101477.06;5035150;28;20036;-78
2023/03/29 10:22:31;;;;;;;10.63;7.60;;;;;;;11.82;100.00;101476.75;5034834;28;20030;-78
2023/03/29 10:24:57;;;;;;;12.50;8.15;;;;;;;11.79;100.00;101468.13;5034822;28;20457;-75
2023/03/29 10:27:28;;;;;;;12.60;7.85;;;;;;;11.93;100.00;101454.50;5034178;28;20022;-84
2023/03/29 10:29:55;;;;;;;12.80;7.35;;;;;;;11.94;100.00;101455.34;5035527;28;20396;-77
2023/03/29 10:32:21;;;;;;;10.52;7.13;;;;;;;11.95;100.00;101449.88;5033661;28;20140;-79
2023/03/29 10:34:48;;;;;;;10.98;7.22;;;;;;;11.91;100.00;101442.25;5033909;28;20052;-78
2023/03/29 10:37:17;;;;;;;13.20;6.95;;;;;;;12.19;100.00;101437.22;5015878;28;20362;-78
2023/03/29 10:39:44;;;;;;;11.57;6.95;;;;;;;12.10;100.00;101430.84;5034033;28;20420;-78
2023/03/29 10:42:13;;;;;;;11.20;7.07;;;;;;;12.12;100.00;101439.56;5033646;28;20132;-76
2023/03/29 10:44:39;;;;;;;11.95;6.57;;;;;;;12.19;100.00;101442.53;5033944;28;20029;-77
2023/03/29 10:47:15;;;;;;;10.23;6.90;;;;;;;11.94;100.00;101434.88;5015708;28;20125;-76
2023/03/29 10:49:49;;;;;;;11.75;7.47;;;;;;;11.82;100.00;101438.53;5033470;28;20025;-78
2023/03/29 10:52:18;;;;;;;9.20;6.70;;;;;;;11.78;100.00;101429.97;5033249;28;20526;-74
2023/03/29 10:54:46;;;;;;;15.27;7.25;;;;;;;11.72;100.00;101421.66;5033352;28;20065;-76
2023/03/29 10:57:16;;;;;;;14.75;8.27;;;;;;;11.60;100.00;101423.59;5033296;28;20025;-78
2023/03/29 10:59:45;;;;;;;13.50;7.78;;;;;;;11.57;100.00;101439.81;5033918;28;20030;-77
2023/03/29 11:02:47;;;;;;;15.88;8.82;;;;;;;11.37;100.00;101438.84;5032819;28;20029;-80
2023/03/29 11:05:26;;;;;;;17.15;8.57;;;;;;;11.17;100.00;101445.88;5033320;28;20361;-74
2023/03/29 11:08:07;;;;;;;17.52;9.15;;;;;;;11.08;100.00;101448.31;5048325;28;20037;-78
2023/03/29 11:10:32;;;;;;;;;;;;;;;11.16;100.00;101447.66;5033863;28;20029;-80
2023/03/29 11:13:18;;;;;;;15.73;8.95;;;;;;;11.27;100.00;101452.94;5033142;28;19978;-76
2023/03/29 11:15:47;;;;;;;13.40;8.68;;;;;;;11.40;100.00;101462.56;5033358;28;20036;-78
2023/03/29 11:18:41;;;;;;;15.52;8.85;;;;;;;11.44;100.00;101456.00;5032694;28;20093;-80
2023/03/29 11:21:19;;;;;;;17.10;8.63;;;;;;;11.47;100.00;101467.25;5015394;28;20099;-77
2023/03/29 11:24:07;;;;;;;11.98;8.13;;;;;;;11.44;100.00;101467.50;5015270;28;20126;-76
2023/03/29 11:26:50;;;;;;;15.63;8.35;;;;;;;11.29;100.00;101466.97;5033226;28;20029;-75
2023/03/29 11:29:27;;;;;;;18.77;9.32;;;;;;;11.21;100.00;101476.56;5033357;28;20037;-77
2023/03/29 11:32:27;;;;;;;16.40;9.02;;;;;;;10.98;100.00;101474.00;5033547;28;20037;-75